createdAt,value
2023-10-16T00:00:30.911Z,15.79
2023-10-16T00:03:23.940Z,15.72
2023-10-16T00:05:57.484Z,15.67
2023-10-16T00:08:29.489Z,15.63
2023-10-16T00:11:02.877Z,15.57
2023-10-16T00:13:38.652Z,15.49
2023-10-16T00:16:16.420Z,15.42
2023-10-16T00:18:49.021Z,15.37
2023-10-16T00:21:21.357Z,15.29
2023-10-16T00:23:53.721Z,15.27
2023-10-16T00:26:25.948Z,15.24
2023-10-16T00:29:09.184Z,15.19
2023-10-16T00:31:44.793Z,15.13
2023-10-16T00:34:21.471Z,15.11
2023-10-16T00:36:55.434Z,15.05
2023-10-16T00:39:30.659Z,14.99
2023-10-16T00:42:04.073Z,14.92
2023-10-16T00:44:36.959Z,14.87
2023-10-16T00:47:11.263Z,14.82
2023-10-16T00:49:44.651Z,14.82
2023-10-16T00:52:17.650Z,14.80
2023-10-16T00:54:50.850Z,14.78
2023-10-16T00:57:28.770Z,14.77
2023-10-16T01:00:01.309Z,14.73
2023-10-16T01:02:36.025Z,14.71
2023-10-16T01:05:10.123Z,14.71
2023-10-16T01:07:42.103Z,14.70
2023-10-16T01:10:14.474Z,14.71
2023-10-16T01:12:56.314Z,14.69
2023-10-16T01:15:28.875Z,14.69
2023-10-16T01:18:00.635Z,14.66
2023-10-16T01:20:32.967Z,14.63
2023-10-16T01:23:08.704Z,14.60
2023-10-16T01:25:41.602Z,14.57
2023-10-16T01:28:16.793Z,14.53
2023-10-16T01:30:50.728Z,14.52
2023-10-16T01:33:24.683Z,14.50
2023-10-16T01:35:56.620Z,14.46
2023-10-16T01:38:29.198Z,14.46
2023-10-16T01:41:08.729Z,14.44
2023-10-16T01:43:40.544Z,14.42
2023-10-16T01:46:14.533Z,14.42
2023-10-16T01:48:48.492Z,14.42
2023-10-16T01:51:21.314Z,14.42
2023-10-16T01:53:53.458Z,14.41
2023-10-16T01:56:25.845Z,14.37
2023-10-16T01:58:58.603Z,14.33
2023-10-16T02:01:30.980Z,14.30
2023-10-16T02:04:05.057Z,14.29
2023-10-16T02:06:37.159Z,14.28
2023-10-16T02:09:15.014Z,14.28
2023-10-16T02:11:47.421Z,14.28
2023-10-16T02:14:18.969Z,14.28
2023-10-16T02:16:53.223Z,14.28
2023-10-16T02:19:26.517Z,14.23
2023-10-16T02:21:57.928Z,14.21
2023-10-16T02:24:30.591Z,14.21
2023-10-16T02:27:03.901Z,14.17
2023-10-16T02:29:36.265Z,14.15
2023-10-16T02:32:11.595Z,14.12
2023-10-16T02:34:43.492Z,14.10
2023-10-16T02:37:17.881Z,14.10
2023-10-16T02:39:55.785Z,14.07
2023-10-16T02:42:29.528Z,14.07
2023-10-16T02:45:01.149Z,14.07
2023-10-16T02:47:33.732Z,14.07
2023-10-16T02:50:09.629Z,14.04
2023-10-16T02:52:41.337Z,13.99
2023-10-16T02:55:15.425Z,13.99
2023-10-16T02:57:47.312Z,13.97
2023-10-16T03:00:26.905Z,13.93
2023-10-16T03:02:59.529Z,13.91
2023-10-16T03:05:31.586Z,13.89
2023-10-16T03:08:03.968Z,13.89
2023-10-16T03:10:38.063Z,13.88
2023-10-16T03:13:10.129Z,13.86
2023-10-16T03:15:47.172Z,13.86
2023-10-16T03:18:21.465Z,13.84
2023-10-16T03:21:03.515Z,13.81
2023-10-16T03:23:36.001Z,13.81
2023-10-16T03:26:10.416Z,13.78
2023-10-16T03:28:41.968Z,13.73
2023-10-16T03:31:14.423Z,13.68
2023-10-16T03:33:46.622Z,13.55
2023-10-16T03:36:19.324Z,13.43
2023-10-16T03:38:52.472Z,13.33
2023-10-16T03:41:29.684Z,13.16
2023-10-16T03:44:09.172Z,13.00
2023-10-16T03:46:43.356Z,12.86
2023-10-16T03:49:16.802Z,12.67
2023-10-16T03:51:49.935Z,12.48
2023-10-16T03:54:32.542Z,12.28
2023-10-16T03:57:11.574Z,12.14
2023-10-16T03:59:44.325Z,12.08
2023-10-16T04:02:21.520Z,11.93
2023-10-16T04:04:55.338Z,11.83
2023-10-16T04:07:27.057Z,11.77
2023-10-16T04:10:15.606Z,11.67
2023-10-16T04:12:52.888Z,11.57
2023-10-16T04:15:47.492Z,11.50
2023-10-16T04:18:32.677Z,11.48
2023-10-16T04:21:22.645Z,11.44
2023-10-16T04:23:58.935Z,11.44
2023-10-16T04:26:49.341Z,11.40
2023-10-16T04:29:35.188Z,11.35
2023-10-16T04:32:28.904Z,11.33
2023-10-16T04:35:04.779Z,11.33
2023-10-16T04:37:38.761Z,11.28
2023-10-16T04:40:44.676Z,11.23
2023-10-16T04:43:20.965Z,11.17
2023-10-16T04:46:16.966Z,11.12
2023-10-16T04:48:52.611Z,11.11
2023-10-16T04:54:29.720Z,11.04
2023-10-16T04:57:31.073Z,10.99
2023-10-16T05:00:29.873Z,10.95
2023-10-16T05:03:24.038Z,10.91
2023-10-16T05:06:05.462Z,10.89
2023-10-16T05:09:00.909Z,10.89
2023-10-16T05:11:37.726Z,10.84
2023-10-16T05:14:23.951Z,10.80
2023-10-16T05:17:23.081Z,10.77
2023-10-16T05:20:14.623Z,10.73
2023-10-16T05:23:03.776Z,10.70
2023-10-16T05:25:54.986Z,10.66
2023-10-16T05:28:44.566Z,10.65
2023-10-16T05:31:45.662Z,10.66
2023-10-16T05:34:34.411Z,10.62
2023-10-16T05:37:24.343Z,10.61
2023-10-16T05:40:14.740Z,10.59
2023-10-16T05:43:04.516Z,10.56
2023-10-16T05:45:54.139Z,10.50
2023-10-16T05:48:43.476Z,10.49
2023-10-16T05:51:32.863Z,10.46
2023-10-16T05:54:23.084Z,10.45
2023-10-16T05:57:12.188Z,10.43
2023-10-16T06:00:01.975Z,10.44
2023-10-16T06:03:01.392Z,10.46
2023-10-16T06:05:51.762Z,10.42
2023-10-16T06:08:41.132Z,10.44
2023-10-16T06:11:31.044Z,10.40
2023-10-16T06:14:15.266Z,10.39
2023-10-16T06:16:48.710Z,10.36
2023-10-16T06:19:21.164Z,10.35
2023-10-16T06:21:54.256Z,10.32
2023-10-16T06:24:34.503Z,10.33
2023-10-16T06:27:10.441Z,10.35
2023-10-16T06:29:51.208Z,10.35
2023-10-16T06:32:24.138Z,10.31
2023-10-16T06:34:59.818Z,10.29
2023-10-16T06:37:33.444Z,10.30
2023-10-16T06:40:17.649Z,10.31
2023-10-16T06:42:49.569Z,10.31
2023-10-16T06:45:24.054Z,10.30
2023-10-16T06:48:00.308Z,10.32
2023-10-16T06:50:36.565Z,10.34
2023-10-16T06:53:08.237Z,10.38
2023-10-16T06:55:40.607Z,10.37
2023-10-16T06:58:13.832Z,10.38
2023-10-16T07:00:48.962Z,10.41
2023-10-16T07:03:22.251Z,10.41
2023-10-16T07:05:55.012Z,10.42
2023-10-16T07:08:27.380Z,10.44
2023-10-16T07:11:04.988Z,10.44
2023-10-16T07:13:40.187Z,10.47
2023-10-16T07:16:12.711Z,10.45
2023-10-16T07:18:45.900Z,10.42
2023-10-16T07:21:19.568Z,10.41
2023-10-16T07:23:54.724Z,10.44
2023-10-16T07:26:28.107Z,10.46
2023-10-16T07:29:00.084Z,10.48
2023-10-16T07:31:31.528Z,10.46
2023-10-16T07:34:05.624Z,10.40
2023-10-16T07:36:38.222Z,10.41
2023-10-16T07:39:10.219Z,10.42
2023-10-16T07:41:44.875Z,10.45
2023-10-16T07:44:16.612Z,10.46
2023-10-16T07:46:49.820Z,10.46
2023-10-16T07:49:26.713Z,10.49
2023-10-16T07:52:01.570Z,10.52
2023-10-16T07:54:38.157Z,10.52
2023-10-16T07:57:12.748Z,10.50
2023-10-16T07:59:49.066Z,10.52
2023-10-16T08:02:21.431Z,10.53
2023-10-16T08:04:54.603Z,10.56
2023-10-16T08:07:47.030Z,10.59
2023-10-16T08:10:43.986Z,10.62
2023-10-16T08:13:17.790Z,10.68
2023-10-16T08:15:51.096Z,10.69
2023-10-16T08:18:27.329Z,10.71
2023-10-16T08:21:09.055Z,10.72
2023-10-16T08:23:47.298Z,10.74
2023-10-16T08:26:29.693Z,10.76
2023-10-16T08:29:13.164Z,10.78
2023-10-16T08:31:45.946Z,10.84
2023-10-16T08:34:21.314Z,10.91
2023-10-16T08:36:53.801Z,10.98
2023-10-16T08:39:26.500Z,11.06
2023-10-16T08:42:03.801Z,11.13
2023-10-16T08:44:36.288Z,11.19
2023-10-16T08:47:17.552Z,11.23
2023-10-16T08:49:59.263Z,11.27
2023-10-16T08:52:36.212Z,11.33
2023-10-16T08:55:17.119Z,11.43
2023-10-16T08:57:50.742Z,11.52
2023-10-16T09:00:24.605Z,11.65
2023-10-16T09:02:58.590Z,11.76
2023-10-16T09:05:31.607Z,11.87
2023-10-16T09:08:06.444Z,12.01
2023-10-16T09:10:43.090Z,12.14
2023-10-16T09:13:20.169Z,12.24
2023-10-16T09:15:59.313Z,12.39
2023-10-16T09:18:32.896Z,12.49
2023-10-16T09:21:14.544Z,12.60
2023-10-16T09:23:53.237Z,12.73
2023-10-16T09:26:30.445Z,12.85
2023-10-16T09:29:06.954Z,12.96
2023-10-16T09:31:39.045Z,13.07
2023-10-16T09:34:11.909Z,13.23
2023-10-16T09:36:48.220Z,13.37
2023-10-16T09:39:31.665Z,13.56
2023-10-16T09:42:08.210Z,13.75
2023-10-16T09:44:40.689Z,13.89
2023-10-16T09:47:30.644Z,14.10
2023-10-16T09:50:18.445Z,14.26
2023-10-16T09:52:50.317Z,14.44
2023-10-16T09:55:25.544Z,14.60
2023-10-16T09:57:59.540Z,14.72
2023-10-16T10:00:34.226Z,14.79
2023-10-16T10:03:09.398Z,14.86
2023-10-16T10:05:49.575Z,14.88
2023-10-16T10:08:29.141Z,14.96
2023-10-16T10:11:29.122Z,15.03
2023-10-16T10:14:21.700Z,15.07
2023-10-16T10:16:58.389Z,15.17
2023-10-16T10:19:37.305Z,15.29
2023-10-16T10:22:18.761Z,15.38
2023-10-16T10:24:53.670Z,15.40
2023-10-16T10:27:25.956Z,15.46
2023-10-16T10:30:03.018Z,15.51
2023-10-16T10:32:35.060Z,15.53
2023-10-16T10:35:28.109Z,15.56
2023-10-16T10:38:18.770Z,15.58
2023-10-16T10:41:07.635Z,15.60
2023-10-16T10:43:47.899Z,15.64
2023-10-16T10:46:28.204Z,15.61
2023-10-16T10:49:04.904Z,15.61
2023-10-16T10:51:38.293Z,15.64
2023-10-16T10:54:11.353Z,15.66
2023-10-16T10:56:49.111Z,15.70
2023-10-16T10:59:33.951Z,15.69
2023-10-16T11:02:22.905Z,15.71
2023-10-16T11:05:00.328Z,15.74
2023-10-16T11:07:41.104Z,15.78
2023-10-16T11:10:15.398Z,15.81
2023-10-16T11:12:47.795Z,15.84
2023-10-16T11:15:20.944Z,15.87
2023-10-16T11:17:53.920Z,15.92
2023-10-16T11:20:32.525Z,15.94
2023-10-16T11:23:14.097Z,15.95
2023-10-16T11:25:47.217Z,16.01
2023-10-16T11:28:21.538Z,16.06
2023-10-16T11:30:55.952Z,16.09
2023-10-16T11:33:29.306Z,16.12
2023-10-16T11:36:04.704Z,16.18
2023-10-16T11:38:36.973Z,16.19
2023-10-16T11:41:13.745Z,16.25
2023-10-16T11:43:52.906Z,16.31
2023-10-16T11:46:32.672Z,16.35
2023-10-16T11:49:19.785Z,16.38
2023-10-16T11:51:52.784Z,16.40
2023-10-16T11:54:25.733Z,16.41
2023-10-16T11:57:01.033Z,16.45
2023-10-16T11:59:33.754Z,16.50
2023-10-16T12:02:12.694Z,16.53
2023-10-16T12:04:45.674Z,16.56
2023-10-16T12:07:18.108Z,16.60
2023-10-16T12:09:53.221Z,16.63
2023-10-16T12:12:26.446Z,16.70
2023-10-16T12:14:58.993Z,16.73
2023-10-16T12:17:30.642Z,16.77
2023-10-16T12:20:10.291Z,16.83
2023-10-16T12:22:41.396Z,16.90
2023-10-16T12:25:14.096Z,16.96
2023-10-16T12:27:45.985Z,17.00
2023-10-16T12:30:18.481Z,17.03
2023-10-16T12:32:50.875Z,17.07
2023-10-16T12:35:24.318Z,17.12
2023-10-16T12:37:58.115Z,17.14
2023-10-16T12:40:35.513Z,17.17
2023-10-16T12:43:08.836Z,17.21
2023-10-16T12:45:42.436Z,17.24
2023-10-16T12:48:15.652Z,17.26
2023-10-16T12:51:03.773Z,17.30
2023-10-16T12:53:41.426Z,17.33
2023-10-16T12:56:14.203Z,17.35
2023-10-16T12:58:46.577Z,17.38
2023-10-16T13:01:23.351Z,17.38
2023-10-16T13:04:01.632Z,17.37
2023-10-16T13:06:35.531Z,17.40
2023-10-16T13:09:15.928Z,17.43
2023-10-16T13:11:48.581Z,17.48
2023-10-16T13:14:20.456Z,17.51
2023-10-16T13:16:55.918Z,17.52
2023-10-16T13:19:29.094Z,17.54
2023-10-16T13:22:09.362Z,17.56
2023-10-16T13:24:43.792Z,17.56
2023-10-16T13:27:17.973Z,17.56
2023-10-16T13:29:53.174Z,17.56
2023-10-16T13:32:27.409Z,17.58
2023-10-16T13:35:01.580Z,17.60
2023-10-16T13:37:35.204Z,17.63
2023-10-16T13:40:17.283Z,17.63
2023-10-16T13:42:49.146Z,17.65
2023-10-16T13:45:23.323Z,17.68
2023-10-16T13:47:56.116Z,17.68
2023-10-16T13:50:29.715Z,17.69
2023-10-16T13:53:01.056Z,17.69
2023-10-16T13:55:32.860Z,17.69
2023-10-16T13:58:07.087Z,17.66
2023-10-16T14:00:39.854Z,17.64
2023-10-16T14:03:18.643Z,17.62
2023-10-16T14:05:52.176Z,17.59
2023-10-16T14:08:32.484Z,17.57
2023-10-16T14:11:05.261Z,17.55
2023-10-16T14:13:38.992Z,17.52
2023-10-16T14:16:13.189Z,17.46
2023-10-16T14:18:45.765Z,17.40
2023-10-16T14:21:18.240Z,17.36
2023-10-16T14:23:49.982Z,17.29
2023-10-16T14:26:25.965Z,17.22
2023-10-16T14:29:01.184Z,17.17
2023-10-16T14:31:35.190Z,17.12
2023-10-16T14:34:08.522Z,17.08
2023-10-16T14:36:42.100Z,17.00
2023-10-16T14:39:14.901Z,16.97
2023-10-16T14:41:51.173Z,16.92
2023-10-16T14:44:33.174Z,16.82
2023-10-16T14:47:10.987Z,16.76
2023-10-16T14:49:43.391Z,16.67
2023-10-16T14:52:15.747Z,16.60
2023-10-16T14:54:48.137Z,16.54
2023-10-16T14:57:25.742Z,16.47
2023-10-16T14:59:58.624Z,16.39
2023-10-16T15:02:30.802Z,16.31
2023-10-16T15:05:03.248Z,16.23
2023-10-16T15:07:34.655Z,16.14
2023-10-16T15:10:07.946Z,16.06
2023-10-16T15:12:41.235Z,16.00
2023-10-16T15:15:14.361Z,15.90
2023-10-16T15:17:46.911Z,15.82
2023-10-16T15:20:20.051Z,15.73
2023-10-16T15:22:51.794Z,15.64
2023-10-16T15:25:23.910Z,15.53
2023-10-16T15:27:56.371Z,15.44
2023-10-16T15:30:29.330Z,15.33
2023-10-16T15:33:01.757Z,15.23
2023-10-16T15:35:34.273Z,15.13
2023-10-16T15:38:07.649Z,15.01
2023-10-16T15:40:44.494Z,14.91
2023-10-16T15:43:18.620Z,14.80
2023-10-16T15:45:50.783Z,14.71
2023-10-16T15:48:23.072Z,14.59
2023-10-16T15:50:55.685Z,14.49
2023-10-16T15:53:27.201Z,14.38
2023-10-16T15:55:59.167Z,14.26
2023-10-16T15:58:31.539Z,14.15
2023-10-16T16:01:07.067Z,14.06
2023-10-16T16:03:41.082Z,13.92
2023-10-16T16:06:18.764Z,13.83
2023-10-16T16:08:50.844Z,13.73
2023-10-16T16:11:28.668Z,13.62
2023-10-16T16:14:00.841Z,13.51
2023-10-16T16:16:33.982Z,13.41
2023-10-16T16:19:07.266Z,13.30
2023-10-16T16:21:40.729Z,13.20
2023-10-16T16:24:14.029Z,13.11
2023-10-16T16:26:46.463Z,12.99
2023-10-16T16:29:18.240Z,12.91
2023-10-16T16:31:50.423Z,12.82
2023-10-16T16:34:23.655Z,12.73
2023-10-16T16:36:55.737Z,12.62
2023-10-16T16:39:30.362Z,12.54
2023-10-16T16:42:02.589Z,12.45
2023-10-16T16:44:34.693Z,12.39
2023-10-16T16:47:07.678Z,12.30
2023-10-16T16:49:40.659Z,12.22
2023-10-16T16:52:13.033Z,12.15
2023-10-16T16:54:45.703Z,12.08
2023-10-16T16:57:17.825Z,11.99
2023-10-16T16:59:49.977Z,11.95
2023-10-16T17:02:22.562Z,11.87
2023-10-16T17:04:55.580Z,11.81
2023-10-16T17:07:31.417Z,11.76
2023-10-16T17:10:03.798Z,11.70
2023-10-16T17:12:37.759Z,11.63
2023-10-16T17:15:13.335Z,11.58
2023-10-16T17:17:46.081Z,11.52
2023-10-16T17:20:18.534Z,11.47
2023-10-16T17:25:28.601Z,11.36
2023-10-16T17:28:00.612Z,11.30
2023-10-16T17:30:33.454Z,11.26
2023-10-16T17:33:08.384Z,11.22
2023-10-16T17:35:40.391Z,11.19
2023-10-16T17:38:11.994Z,11.15
2023-10-16T17:40:46.221Z,11.12
2023-10-16T17:43:20.161Z,11.08
2023-10-16T17:45:52.322Z,11.04
2023-10-16T17:48:26.824Z,11.00
2023-10-16T17:50:59.740Z,10.98
2023-10-16T17:53:31.853Z,10.93
2023-10-16T17:56:04.019Z,10.91
2023-10-16T17:58:38.227Z,10.86
2023-10-16T18:01:15.517Z,10.83
2023-10-16T18:03:48.213Z,10.80
2023-10-16T18:06:22.007Z,10.76
2023-10-16T18:08:54.907Z,10.71
2023-10-16T18:11:27.277Z,10.68
2023-10-16T18:13:59.424Z,10.64
2023-10-16T18:16:32.827Z,10.61
2023-10-16T18:19:05.333Z,10.57
2023-10-16T18:21:41.731Z,10.51
2023-10-16T18:24:16.624Z,10.46
2023-10-16T18:26:50.295Z,10.39
2023-10-16T18:29:22.033Z,10.35
2023-10-16T18:31:55.051Z,10.30
2023-10-16T18:34:28.425Z,10.25
2023-10-16T18:37:01.438Z,10.18
2023-10-16T18:39:34.744Z,10.09
2023-10-16T18:42:08.865Z,10.03
2023-10-16T18:44:43.733Z,10.01
2023-10-16T18:47:18.923Z,9.95
2023-10-16T18:49:51.270Z,9.94
2023-10-16T18:52:23.666Z,9.92
2023-10-16T18:54:56.329Z,9.89
2023-10-16T18:57:30.001Z,9.88
2023-10-16T19:00:02.416Z,9.84
2023-10-16T19:02:34.762Z,9.82
2023-10-16T19:05:09.666Z,9.79
2023-10-16T19:07:40.946Z,9.77
2023-10-16T19:10:16.362Z,9.75
2023-10-16T19:12:48.097Z,9.72
2023-10-16T19:15:20.875Z,9.69
2023-10-16T19:17:54.332Z,9.66
2023-10-16T19:20:27.102Z,9.63
2023-10-16T19:22:58.472Z,9.62
2023-10-16T19:25:30.992Z,9.58
2023-10-16T19:28:05.097Z,9.56
2023-10-16T19:30:37.785Z,9.54
2023-10-16T19:33:11.703Z,9.52
2023-10-16T19:35:44.781Z,9.49
2023-10-16T19:38:16.529Z,9.47
2023-10-16T19:40:49.519Z,9.45
2023-10-16T19:43:21.400Z,9.41
2023-10-16T19:45:56.056Z,9.38
2023-10-16T19:48:28.174Z,9.36
2023-10-16T19:51:00.478Z,9.32
2023-10-16T19:53:32.139Z,9.29
2023-10-16T19:56:03.678Z,9.25
2023-10-16T19:58:35.903Z,9.21
2023-10-16T20:01:07.772Z,9.16
2023-10-16T20:03:40.354Z,9.14
2023-10-16T20:06:12.761Z,9.10
2023-10-16T20:08:44.786Z,9.08
2023-10-16T20:11:17.383Z,9.06
2023-10-16T20:13:49.181Z,9.04
2023-10-16T20:16:21.729Z,9.00
2023-10-16T20:18:54.876Z,8.97
2023-10-16T20:21:26.868Z,8.94
2023-10-16T20:24:05.131Z,8.92
2023-10-16T20:26:38.128Z,8.89
2023-10-16T20:29:10.301Z,8.88
2023-10-16T20:31:57.792Z,8.83
2023-10-16T20:34:32.858Z,8.79
2023-10-16T20:37:05.640Z,8.77
2023-10-16T20:39:37.856Z,8.73
2023-10-16T20:42:10.452Z,8.72
2023-10-16T20:44:42.877Z,8.70
2023-10-16T20:47:14.727Z,8.66
2023-10-16T20:49:47.083Z,8.63
2023-10-16T20:52:20.480Z,8.60
2023-10-16T20:54:53.053Z,8.60
2023-10-16T20:57:25.191Z,8.59
2023-10-16T20:59:56.811Z,8.59
2023-10-16T21:02:28.534Z,8.58
2023-10-16T21:05:00.184Z,8.59
2023-10-16T21:07:32.653Z,8.59
2023-10-16T21:10:06.707Z,8.58
2023-10-16T21:12:38.422Z,8.57
2023-10-16T21:15:13.487Z,8.55
2023-10-16T21:17:45.954Z,8.52
2023-10-16T21:20:19.023Z,8.50
2023-10-16T21:22:51.150Z,8.48
2023-10-16T21:25:25.941Z,8.44
2023-10-16T21:27:58.176Z,8.41
2023-10-16T21:30:30.660Z,8.38
2023-10-16T21:33:03.217Z,8.35
2023-10-16T21:35:35.287Z,8.32
2023-10-16T21:38:07.045Z,8.29
2023-10-16T21:40:39.414Z,8.26
2023-10-16T21:43:11.787Z,8.21
2023-10-16T21:45:44.083Z,8.19
2023-10-16T21:48:16.514Z,8.14
2023-10-16T21:50:48.571Z,8.10
2023-10-16T21:53:20.252Z,8.06
2023-10-16T21:55:52.968Z,8.03
2023-10-16T21:58:24.636Z,7.99
2023-10-16T22:01:00.920Z,7.96
2023-10-16T22:03:32.759Z,7.92
2023-10-16T22:06:05.493Z,7.88
2023-10-16T22:08:37.787Z,7.85
2023-10-16T22:11:14.007Z,7.80
2023-10-16T22:13:45.974Z,7.75
2023-10-16T22:16:18.158Z,7.73
2023-10-16T22:18:52.440Z,7.68
2023-10-16T22:21:24.524Z,7.64
2023-10-16T22:23:56.075Z,7.61
2023-10-16T22:26:28.503Z,7.56
2023-10-16T22:29:00.486Z,7.52
2023-10-16T22:31:32.307Z,7.48
2023-10-16T22:34:05.165Z,7.46
2023-10-16T22:36:36.967Z,7.41
2023-10-16T22:39:11.467Z,7.36
2023-10-16T22:41:43.495Z,7.33
2023-10-16T22:44:15.852Z,7.29
2023-10-16T22:46:51.333Z,7.26
2023-10-16T22:49:23.886Z,7.21
2023-10-16T22:51:56.239Z,7.17
2023-10-16T22:54:28.834Z,7.14
2023-10-16T22:57:01.411Z,7.10
2023-10-16T22:59:33.355Z,7.06
2023-10-16T23:02:06.115Z,7.02
2023-10-16T23:04:42.280Z,6.97
2023-10-16T23:07:15.185Z,6.94
2023-10-16T23:09:48.247Z,6.91
2023-10-16T23:12:25.979Z,6.87
2023-10-16T23:15:02.836Z,6.84
2023-10-16T23:17:40.286Z,6.82
2023-10-16T23:20:18.155Z,6.79
2023-10-16T23:22:49.793Z,6.76
2023-10-16T23:25:22.962Z,6.75
2023-10-16T23:27:57.607Z,6.73
2023-10-16T23:30:34.856Z,6.70
2023-10-16T23:33:11.966Z,6.70
2023-10-16T23:35:44.267Z,6.67
2023-10-16T23:38:15.614Z,6.65
2023-10-16T23:40:58.710Z,6.64
2023-10-16T23:43:32.847Z,6.63
2023-10-16T23:46:07.496Z,6.62
2023-10-16T23:48:46.092Z,6.60
2023-10-16T23:51:23.422Z,6.60
2023-10-16T23:53:55.461Z,6.59
2023-10-16T23:56:39.592Z,6.58
2023-10-16T23:59:14.523Z,6.56
